createdAt,value
2023-02-19T00:01:31.518Z,10.75
2023-02-19T00:03:03.976Z,10.74
2023-02-19T00:04:35.933Z,10.75
2023-02-19T00:06:15.465Z,10.72
2023-02-19T00:07:49.668Z,10.70
2023-02-19T00:09:21.873Z,10.70
2023-02-19T00:10:54.050Z,10.69
2023-02-19T00:12:26.071Z,10.69
2023-02-19T00:13:59.206Z,10.69
2023-02-19T00:15:34.151Z,10.68
2023-02-19T00:17:08.274Z,10.69
2023-02-19T00:18:43.110Z,10.68
2023-02-19T00:20:15.108Z,10.67
2023-02-19T00:21:51.796Z,10.68
2023-02-19T00:23:23.941Z,10.71
2023-02-19T00:24:58.803Z,10.70
2023-02-19T00:26:31.165Z,10.72
2023-02-19T00:28:03.239Z,10.70
2023-02-19T00:29:35.224Z,10.72
2023-02-19T00:31:09.312Z,10.71
2023-02-19T00:32:41.535Z,10.71
2023-02-19T00:34:16.206Z,10.71
2023-02-19T00:35:48.426Z,10.72
2023-02-19T00:37:20.473Z,10.71
2023-02-19T00:38:52.797Z,10.72
2023-02-19T00:40:26.283Z,10.73
2023-02-19T00:42:01.013Z,10.74
2023-02-19T00:43:33.015Z,10.75
2023-02-19T00:45:05.283Z,10.74
2023-02-19T00:46:39.592Z,10.75
2023-02-19T00:48:13.023Z,10.73
2023-02-19T00:49:47.445Z,10.73
2023-02-19T00:51:20.959Z,10.75
2023-02-19T00:52:53.034Z,10.74
2023-02-19T00:54:25.310Z,10.75
2023-02-19T00:55:59.825Z,10.75
2023-02-19T00:57:34.849Z,10.77
2023-02-19T00:59:07.033Z,10.75
2023-02-19T01:00:43.975Z,10.76
2023-02-19T01:02:15.997Z,10.77
2023-02-19T01:03:48.569Z,10.77
2023-02-19T01:05:20.626Z,10.78
2023-02-19T01:06:52.931Z,10.78
2023-02-19T01:08:27.753Z,10.77
2023-02-19T01:09:59.802Z,10.76
2023-02-19T01:11:32.528Z,10.75
2023-02-19T01:13:04.643Z,10.75
2023-02-19T01:14:36.837Z,10.75
2023-02-19T01:16:14.062Z,10.75
2023-02-19T01:17:47.825Z,10.74
2023-02-19T01:19:21.840Z,10.74
2023-02-19T01:20:53.785Z,10.74
2023-02-19T01:22:25.821Z,10.74
2023-02-19T01:23:58.904Z,10.78
2023-02-19T01:25:33.943Z,10.78
2023-02-19T01:27:06.028Z,10.75
2023-02-19T01:28:38.064Z,10.74
2023-02-19T01:30:10.743Z,10.75
2023-02-19T01:31:43.082Z,10.77
2023-02-19T01:33:15.152Z,10.75
2023-02-19T01:34:47.159Z,10.74
2023-02-19T01:36:20.225Z,10.76
2023-02-19T01:37:52.229Z,10.77
2023-02-19T01:39:24.235Z,10.75
2023-02-19T01:41:00.753Z,10.75
2023-02-19T01:42:33.107Z,10.78
2023-02-19T01:44:13.966Z,10.79
2023-02-19T01:45:46.824Z,10.77
2023-02-19T01:47:19.277Z,10.79
2023-02-19T01:49:35.490Z,10.80
2023-02-19T01:51:12.933Z,10.77
2023-02-19T01:53:05.611Z,10.77
2023-02-19T01:54:38.918Z,10.77
2023-02-19T01:56:13.770Z,10.77
2023-02-19T01:57:47.494Z,10.77
2023-02-19T01:59:36.690Z,10.77
2023-02-19T02:01:14.109Z,10.74
2023-02-19T02:02:52.418Z,10.73
2023-02-19T02:04:30.270Z,10.73
2023-02-19T02:06:14.712Z,10.74
2023-02-19T02:08:05.281Z,10.71
2023-02-19T02:09:56.127Z,10.74
2023-02-19T02:11:28.476Z,10.74
2023-02-19T02:13:00.594Z,10.73
2023-02-19T02:14:35.620Z,10.72
2023-02-19T02:16:46.020Z,10.71
2023-02-19T02:18:29.876Z,10.69
2023-02-19T02:20:14.917Z,10.71
2023-02-19T02:22:12.789Z,10.69
2023-02-19T02:23:49.445Z,10.67
2023-02-19T02:25:38.848Z,10.68
2023-02-19T02:27:39.716Z,10.67
2023-02-19T02:29:26.754Z,10.67
2023-02-19T02:31:04.366Z,10.66
2023-02-19T02:32:53.585Z,10.66
2023-02-19T02:34:35.655Z,10.67
2023-02-19T02:36:18.185Z,10.68
2023-02-19T02:37:55.470Z,10.67
2023-02-19T02:39:34.327Z,10.67
2023-02-19T02:41:07.094Z,10.68
2023-02-19T02:42:40.652Z,10.67
2023-02-19T02:44:19.493Z,10.67
2023-02-19T02:45:52.215Z,10.67
2023-02-19T02:47:45.064Z,10.70
2023-02-19T02:49:24.620Z,10.67
2023-02-19T02:51:27.401Z,10.67
2023-02-19T02:53:31.179Z,10.66
2023-02-19T02:55:03.258Z,10.66
2023-02-19T02:56:37.971Z,10.65
2023-02-19T02:58:11.350Z,10.65
2023-02-19T02:59:43.733Z,10.67
2023-02-19T03:01:41.931Z,10.68
2023-02-19T03:03:17.859Z,10.68
2023-02-19T03:05:14.762Z,10.67
2023-02-19T03:06:48.065Z,10.66
2023-02-19T03:08:24.460Z,10.66
2023-02-19T03:09:57.121Z,10.65
2023-02-19T03:11:48.478Z,10.66
2023-02-19T03:13:50.142Z,10.66
2023-02-19T03:15:42.523Z,10.66
2023-02-19T03:17:56.858Z,10.65
2023-02-19T03:19:31.478Z,10.64
2023-02-19T03:21:04.565Z,10.63
2023-02-19T03:22:37.004Z,10.64
2023-02-19T03:24:29.295Z,10.63
2023-02-19T03:26:04.430Z,10.64
2023-02-19T03:27:50.577Z,10.64
2023-02-19T03:29:24.440Z,10.65
2023-02-19T03:30:59.879Z,10.65
2023-02-19T03:32:47.317Z,10.64
2023-02-19T03:34:27.696Z,10.61
2023-02-19T03:36:03.333Z,10.62
2023-02-19T03:38:11.808Z,10.64
2023-02-19T03:39:44.660Z,10.63
2023-02-19T03:41:46.278Z,10.63
2023-02-19T03:43:25.748Z,10.63
2023-02-19T03:45:44.029Z,10.63
2023-02-19T03:47:54.674Z,10.62
2023-02-19T03:49:30.539Z,10.61
2023-02-19T03:51:25.262Z,10.61
2023-02-19T03:53:19.113Z,10.59
2023-02-19T03:55:17.689Z,10.59
2023-02-19T03:57:00.651Z,10.60
2023-02-19T03:58:59.037Z,10.59
2023-02-19T04:00:38.268Z,10.57
2023-02-19T04:02:18.806Z,10.55
2023-02-19T04:03:59.722Z,10.55
2023-02-19T04:05:33.992Z,10.52
2023-02-19T04:07:06.360Z,10.54
2023-02-19T04:08:46.099Z,10.52
2023-02-19T04:10:19.020Z,10.53
2023-02-19T04:11:55.027Z,10.52
2023-02-19T04:13:50.172Z,10.51
2023-02-19T04:15:25.049Z,10.50
2023-02-19T04:17:03.373Z,10.49
2023-02-19T04:18:38.911Z,10.47
2023-02-19T04:20:11.662Z,10.44
2023-02-19T04:21:44.690Z,10.42
2023-02-19T04:23:20.133Z,10.43
2023-02-19T04:24:53.883Z,10.41
2023-02-19T04:26:25.943Z,10.37
2023-02-19T04:27:58.939Z,10.34
2023-02-19T04:29:30.682Z,10.36
2023-02-19T04:31:02.869Z,10.32
2023-02-19T04:32:34.948Z,10.30
2023-02-19T04:34:06.896Z,10.28
2023-02-19T04:35:41.496Z,10.29
2023-02-19T04:37:13.756Z,10.30
2023-02-19T04:38:45.828Z,10.29
2023-02-19T04:40:20.456Z,10.28
2023-02-19T04:41:52.457Z,10.31
2023-02-19T04:43:26.862Z,10.28
2023-02-19T04:44:58.765Z,10.28
2023-02-19T04:46:30.850Z,10.27
2023-02-19T04:48:02.869Z,10.27
2023-02-19T04:49:34.833Z,10.27
2023-02-19T04:51:07.937Z,10.28
2023-02-19T04:52:39.948Z,10.26
2023-02-19T04:54:11.824Z,10.26
2023-02-19T04:55:43.882Z,10.28
2023-02-19T04:57:15.864Z,10.26
2023-02-19T04:58:47.892Z,10.23
2023-02-19T05:00:20.056Z,10.23
2023-02-19T05:01:52.158Z,10.23
2023-02-19T05:03:26.339Z,10.24
2023-02-19T05:04:58.306Z,10.22
2023-02-19T05:06:30.292Z,10.21
2023-02-19T05:08:02.799Z,10.19
2023-02-19T05:09:37.705Z,10.17
2023-02-19T05:11:12.133Z,10.14
2023-02-19T05:12:46.751Z,10.14
2023-02-19T05:14:18.766Z,10.12
2023-02-19T05:16:02.312Z,10.14
2023-02-19T05:17:35.005Z,10.11
2023-02-19T05:19:07.379Z,10.12
2023-02-19T05:20:39.490Z,10.13
2023-02-19T05:22:11.388Z,10.11
2023-02-19T05:23:43.761Z,10.08
2023-02-19T05:25:15.823Z,10.08
2023-02-19T05:26:48.447Z,10.07
2023-02-19T05:28:21.362Z,10.06
2023-02-19T05:29:53.168Z,10.10
2023-02-19T05:31:25.395Z,10.05
2023-02-19T05:32:57.436Z,10.05
2023-02-19T05:34:29.598Z,10.06
2023-02-19T05:36:08.530Z,10.06
2023-02-19T05:37:40.481Z,10.04
2023-02-19T05:39:14.683Z,10.05
2023-02-19T05:40:47.118Z,10.04
2023-02-19T05:42:19.103Z,10.05
2023-02-19T05:43:51.721Z,10.03
2023-02-19T05:45:23.840Z,10.03
2023-02-19T05:46:57.639Z,10.04
2023-02-19T05:48:32.259Z,10.04
2023-02-19T05:50:07.037Z,10.05
2023-02-19T05:51:41.489Z,10.04
2023-02-19T05:53:13.639Z,10.05
2023-02-19T05:54:47.799Z,10.01
2023-02-19T05:56:40.193Z,10.04
2023-02-19T05:58:12.218Z,10.01
2023-02-19T05:59:52.901Z,9.99
2023-02-19T06:01:28.292Z,10.01
2023-02-19T06:03:00.700Z,10.02
2023-02-19T06:04:32.658Z,10.00
2023-02-19T06:06:04.836Z,9.98
2023-02-19T06:07:39.843Z,9.99
2023-02-19T06:09:12.264Z,9.99
2023-02-19T06:10:44.482Z,9.97
2023-02-19T06:12:18.941Z,9.98
2023-02-19T06:13:51.230Z,9.96
2023-02-19T06:15:23.270Z,9.94
2023-02-19T06:16:55.262Z,9.94
2023-02-19T06:18:27.227Z,9.98
2023-02-19T06:19:59.252Z,9.95
2023-02-19T06:21:31.616Z,9.96
2023-02-19T06:23:06.839Z,9.96
2023-02-19T06:24:39.757Z,9.97
2023-02-19T06:26:19.436Z,9.97
2023-02-19T06:27:51.404Z,9.96
2023-02-19T06:29:23.365Z,9.96
2023-02-19T06:30:55.317Z,9.96
2023-02-19T06:32:27.386Z,9.94
2023-02-19T06:33:59.447Z,9.94
2023-02-19T06:35:31.361Z,9.93
2023-02-19T06:37:03.456Z,9.93
2023-02-19T06:38:35.423Z,9.93
2023-02-19T06:40:08.284Z,9.94
2023-02-19T06:41:40.288Z,9.93
2023-02-19T06:43:12.219Z,9.94
2023-02-19T06:44:44.160Z,9.92
2023-02-19T06:46:16.019Z,9.94
2023-02-19T06:47:48.101Z,9.94
2023-02-19T06:49:20.019Z,9.94
2023-02-19T06:50:51.998Z,9.93
2023-02-19T06:52:23.911Z,9.92
2023-02-19T06:53:56.236Z,9.91
2023-02-19T06:55:28.139Z,9.92
2023-02-19T06:57:06.681Z,9.91
2023-02-19T06:58:53.104Z,9.92
2023-02-19T07:00:25.341Z,9.92
2023-02-19T07:04:16.522Z,9.91
2023-02-19T07:06:20.065Z,9.94
2023-02-19T07:07:56.580Z,9.90
2023-02-19T07:09:33.589Z,9.89
2023-02-19T07:11:11.267Z,9.88
2023-02-19T07:12:51.235Z,9.90
2023-02-19T07:14:25.396Z,9.91
2023-02-19T07:16:02.273Z,9.92
2023-02-19T07:17:35.251Z,9.91
2023-02-19T07:19:07.146Z,9.93
2023-02-19T07:20:41.581Z,9.90
2023-02-19T07:22:23.900Z,9.89
2023-02-19T07:23:56.274Z,9.88
2023-02-19T07:25:31.556Z,9.88
2023-02-19T07:34:08.962Z,9.88
2023-02-19T07:35:51.701Z,9.86
2023-02-19T07:37:23.639Z,9.89
2023-02-19T07:38:59.049Z,9.88
2023-02-19T07:40:36.060Z,9.87
2023-02-19T07:42:08.163Z,9.88
2023-02-19T07:43:40.803Z,9.89
2023-02-19T07:45:17.462Z,9.91
2023-02-19T07:49:43.533Z,9.92
2023-02-19T07:51:38.218Z,9.97
2023-02-19T07:53:28.951Z,9.94
2023-02-19T07:55:49.026Z,9.97
2023-02-19T08:00:11.614Z,10.00
2023-02-19T08:01:01.713Z,10.00
2023-02-19T08:02:25.777Z,10.01
2023-02-19T08:03:58.496Z,10.01
2023-02-19T08:05:33.001Z,10.05
2023-02-19T08:07:10.636Z,10.06
2023-02-19T08:08:48.434Z,10.07
2023-02-19T08:11:06.721Z,10.07
2023-02-19T08:12:57.363Z,10.06
2023-02-19T08:14:29.571Z,10.04
2023-02-19T08:16:18.253Z,10.01
2023-02-19T08:18:01.822Z,10.01
2023-02-19T08:22:55.152Z,9.98
2023-02-19T08:24:34.029Z,9.96
2023-02-19T08:26:06.346Z,9.93
2023-02-19T08:27:38.422Z,9.95
2023-02-19T08:29:11.622Z,9.96
2023-02-19T08:30:54.218Z,10.01
2023-02-19T08:32:26.269Z,10.00
2023-02-19T08:35:47.656Z,10.01
2023-02-19T16:45:54.281Z,9.33
2023-02-19T16:52:58.225Z,9.27
2023-02-19T16:54:45.997Z,9.28
2023-02-19T16:56:22.374Z,9.28
2023-02-19T17:03:20.696Z,9.23
2023-02-19T17:07:37.395Z,9.20
2023-02-19T19:07:50.714Z,8.37
2023-02-19T23:57:13.503Z,5.85
2023-02-19T23:58:53.263Z,5.85
